createdAt,value
2022-11-21T00:00:09.282Z,99718.63
2022-11-21T00:05:12.774Z,99710.94
2022-11-21T00:10:17.920Z,99699.59
2022-11-21T00:15:21.326Z,99706.25
2022-11-21T00:20:24.708Z,99696.69
2022-11-21T00:25:29.466Z,99702.63
2022-11-21T00:30:32.932Z,99695.50
2022-11-21T00:35:36.371Z,99686.66
2022-11-21T00:40:41.100Z,99683.22
2022-11-21T00:45:44.570Z,99691.72
2022-11-21T00:50:49.863Z,99691.84
2022-11-21T00:55:54.704Z,99689.22
2022-11-21T01:01:06.752Z,99699.06
2022-11-21T01:06:11.373Z,99689.22
2022-11-21T01:11:17.922Z,99687.09
2022-11-21T01:16:23.226Z,99687.09
2022-11-21T01:21:28.060Z,99683.13
2022-11-21T01:26:34.058Z,99676.28
2022-11-21T01:31:37.487Z,99671.03
2022-11-21T01:36:41.042Z,99668.81
2022-11-21T01:41:46.485Z,99679.75
2022-11-21T01:46:50.737Z,99669.66
2022-11-21T01:51:58.313Z,99674.41
2022-11-21T01:57:06.640Z,99675.34
2022-11-21T02:02:12.161Z,99674.41
2022-11-21T02:07:16.372Z,99679.09
2022-11-21T02:12:24.824Z,99670.28
2022-11-21T02:17:30.699Z,99674.63
2022-11-21T02:22:40.768Z,99701.97
2022-11-21T02:27:46.567Z,99697.84
2022-11-21T02:32:50.105Z,99707.13
2022-11-21T02:38:01.517Z,99702.53
2022-11-21T02:43:09.737Z,99704.41
2022-11-21T02:48:14.083Z,99697.22
2022-11-21T02:53:19.680Z,99714.97
2022-11-21T02:58:24.509Z,99711.97
2022-11-21T03:03:28.064Z,99712.56
2022-11-21T03:08:31.474Z,99724.03
2022-11-21T03:13:36.795Z,99717.41
2022-11-21T03:18:40.359Z,99727.03
2022-11-21T03:23:43.870Z,99729.47
2022-11-21T03:28:48.711Z,99737.13
2022-11-21T03:33:52.167Z,99731.88
2022-11-21T03:38:56.054Z,99737.69
2022-11-21T03:44:03.186Z,99744.63
2022-11-21T03:49:07.083Z,99761.81
2022-11-21T03:54:10.704Z,99767.47
2022-11-21T03:59:15.486Z,99778.09
2022-11-21T04:04:19.209Z,99769.84
2022-11-21T04:09:22.608Z,99771.41
2022-11-21T04:14:27.743Z,99773.44
2022-11-21T04:19:31.344Z,99783.53
2022-11-21T04:24:34.746Z,99785.34
2022-11-21T04:29:39.613Z,99782.53
2022-11-21T04:34:43.065Z,99785.03
2022-11-21T04:39:46.497Z,99795.50
2022-11-21T04:44:51.316Z,99796.72
2022-11-21T04:49:54.745Z,99788.31
2022-11-21T04:54:58.269Z,99784.47
2022-11-21T05:00:03.072Z,99784.06
2022-11-21T05:05:07.395Z,99799.28
2022-11-21T05:10:11.065Z,99792.47
2022-11-21T05:15:20.345Z,99788.78
2022-11-21T05:20:26.706Z,99793.31
2022-11-21T05:25:30.196Z,99798.00
2022-11-21T05:30:34.992Z,99794.09
2022-11-21T05:35:43.126Z,99805.84
2022-11-21T05:40:47.167Z,99799.41
2022-11-21T05:45:51.955Z,99803.31
2022-11-21T05:50:55.493Z,99790.19
2022-11-21T05:56:03.045Z,99788.81
2022-11-21T06:01:08.606Z,99783.97
2022-11-21T06:06:13.482Z,99795.22
2022-11-21T06:11:17.920Z,99799.09
2022-11-21T06:16:22.886Z,99798.03
2022-11-21T06:21:28.152Z,99797.25
2022-11-21T06:26:31.717Z,99800.31
2022-11-21T06:31:36.552Z,99800.16
2022-11-21T06:36:40.065Z,99804.13
2022-11-21T06:41:43.572Z,99810.44
2022-11-21T06:46:51.144Z,99821.91
2022-11-21T06:51:55.167Z,99821.31
2022-11-21T06:56:59.287Z,99824.19
2022-11-21T07:02:04.219Z,99827.31
2022-11-21T07:07:08.114Z,99827.88
2022-11-21T07:12:29.581Z,99834.19
2022-11-21T07:17:34.453Z,99841.50
2022-11-21T07:22:37.871Z,99845.63
2022-11-21T07:27:41.914Z,99855.91
2022-11-21T07:32:46.810Z,99853.50
2022-11-21T07:37:50.348Z,99855.56
2022-11-21T07:42:53.868Z,99851.69
2022-11-21T07:48:02.611Z,99843.88
2022-11-21T07:53:07.565Z,99845.75
2022-11-21T07:58:13.077Z,99842.69
2022-11-21T08:03:18.005Z,99826.72
2022-11-21T08:08:21.536Z,99843.59
2022-11-21T08:13:25.146Z,99849.44
2022-11-21T08:18:30.176Z,99849.81
2022-11-21T08:23:33.725Z,99847.03
2022-11-21T08:28:37.273Z,99839.53
2022-11-21T08:33:42.117Z,99839.00
2022-11-21T08:38:45.589Z,99837.00
2022-11-21T08:43:49.048Z,99836.69
2022-11-21T08:48:53.939Z,99844.44
2022-11-21T08:53:57.413Z,99843.22
2022-11-21T08:59:00.919Z,99844.56
2022-11-21T09:04:06.302Z,99836.59
2022-11-21T09:09:09.941Z,99825.63
2022-11-21T09:14:30.825Z,99840.81
2022-11-21T09:19:35.879Z,99847.13
2022-11-21T09:24:39.361Z,99831.47
2022-11-21T09:29:44.111Z,99829.19
2022-11-21T09:34:51.740Z,99816.41
2022-11-21T09:39:55.201Z,99822.41
2022-11-21T09:45:06.005Z,99819.88
2022-11-21T09:50:24.053Z,99815.47
2022-11-21T09:55:30.380Z,99818.66
2022-11-21T10:00:34.101Z,99814.66
2022-11-21T10:05:42.656Z,99814.34
2022-11-21T10:10:55.761Z,99811.84
2022-11-21T10:16:03.621Z,99805.41
2022-11-21T10:21:13.857Z,99805.59
2022-11-21T10:26:19.057Z,99810.56
2022-11-21T10:31:22.935Z,99809.53
2022-11-21T10:36:31.916Z,99805.41
2022-11-21T10:41:41.504Z,99797.00
2022-11-21T10:46:56.083Z,99802.69
2022-11-21T10:52:05.275Z,99810.63
2022-11-21T10:57:13.194Z,99789.25
2022-11-21T11:02:25.150Z,99775.13
2022-11-21T11:07:30.079Z,99769.34
2022-11-21T11:12:51.617Z,99778.28
2022-11-21T11:17:57.822Z,99759.91
2022-11-21T11:23:16.977Z,99750.66
2022-11-21T11:28:20.975Z,99744.47
2022-11-21T11:33:36.382Z,99733.31
2022-11-21T11:38:47.133Z,99736.59
2022-11-21T11:44:11.282Z,99723.50
2022-11-21T11:49:21.476Z,99721.69
2022-11-21T11:54:29.093Z,99702.25
2022-11-21T11:59:35.230Z,99696.56
2022-11-21T12:04:43.575Z,99683.78
2022-11-21T12:09:51.870Z,99683.84
2022-11-21T12:15:18.200Z,99666.59
2022-11-21T12:20:24.459Z,99664.38
2022-11-21T12:25:31.604Z,99655.09
2022-11-21T12:30:53.296Z,99657.56
2022-11-21T12:36:17.398Z,99648.72
2022-11-21T12:41:47.069Z,99637.53
2022-11-21T12:47:00.177Z,99641.75
2022-11-21T12:52:31.084Z,99633.50
2022-11-21T12:57:44.288Z,99630.56
2022-11-21T13:03:02.961Z,99618.03
2022-11-21T13:08:12.025Z,99616.69
2022-11-21T13:13:20.682Z,99607.66
2022-11-21T13:18:28.028Z,99603.22
2022-11-21T13:23:38.740Z,99597.47
2022-11-21T13:28:44.656Z,99599.38
2022-11-21T13:33:50.033Z,99590.72
2022-11-21T13:39:27.256Z,99590.97
2022-11-21T13:44:40.523Z,99573.91
2022-11-21T13:49:49.474Z,99576.16
2022-11-21T13:55:06.172Z,99593.06
2022-11-21T14:00:38.472Z,99581.84
2022-11-21T14:05:54.019Z,99567.84
2022-11-21T14:10:58.306Z,99571.25
2022-11-21T14:16:14.752Z,99565.75
2022-11-21T14:21:21.664Z,99560.13
2022-11-21T14:26:25.820Z,99558.91
2022-11-21T14:31:30.604Z,99566.09
2022-11-21T14:36:34.053Z,99553.25
2022-11-21T14:41:38.503Z,99539.00
2022-11-21T14:46:44.054Z,99538.28
2022-11-21T14:51:49.420Z,99534.69
2022-11-21T14:56:58.606Z,99529.69
2022-11-21T15:02:05.265Z,99528.34
2022-11-21T15:07:19.160Z,99509.19
2022-11-21T15:12:28.140Z,99499.50
2022-11-21T15:17:33.653Z,99494.03
2022-11-21T15:22:38.933Z,99482.88
2022-11-21T15:27:42.706Z,99484.72
2022-11-21T15:33:05.583Z,99470.06
2022-11-21T15:38:20.567Z,99469.50
2022-11-21T15:43:34.967Z,99462.09
2022-11-21T15:48:39.953Z,99456.53
2022-11-21T15:53:43.554Z,99456.03
2022-11-21T15:58:48.014Z,99448.88
2022-11-21T16:03:54.497Z,99443.81
2022-11-21T16:08:58.180Z,99443.81
2022-11-21T16:14:03.401Z,99455.78
2022-11-21T16:19:08.776Z,99440.31
2022-11-21T16:24:12.204Z,99445.50
2022-11-21T16:29:15.661Z,99446.84
2022-11-21T16:34:21.342Z,99432.66
2022-11-21T16:39:24.732Z,99431.22
2022-11-21T16:44:30.760Z,99431.72
2022-11-21T16:49:35.601Z,99419.00
2022-11-21T16:54:39.024Z,99407.06
2022-11-21T16:59:42.408Z,99382.81
2022-11-21T17:04:47.221Z,99380.72
2022-11-21T17:09:50.669Z,99374.97
2022-11-21T17:14:54.943Z,99373.72
2022-11-21T17:19:59.896Z,99359.22
2022-11-21T17:25:03.383Z,99350.66
2022-11-21T17:30:08.080Z,99344.78
2022-11-21T17:35:12.816Z,99339.38
2022-11-21T17:40:16.452Z,99321.53
2022-11-21T17:45:20.157Z,99319.25
2022-11-21T17:50:25.045Z,99313.78
2022-11-21T17:55:28.552Z,99310.78
2022-11-21T18:00:31.979Z,99297.41
2022-11-21T18:05:36.885Z,99291.78
2022-11-21T18:10:43.781Z,99285.09
2022-11-21T18:15:48.089Z,99274.63
2022-11-21T18:20:53.288Z,99276.72
2022-11-21T18:25:57.338Z,99249.06
2022-11-21T18:31:05.638Z,99253.81
2022-11-21T18:36:12.185Z,99243.63
2022-11-21T18:41:17.548Z,99235.91
2022-11-21T18:46:22.188Z,99230.47
2022-11-21T18:51:29.313Z,99222.13
2022-11-21T18:56:32.977Z,99221.97
2022-11-21T19:01:37.559Z,99210.31
2022-11-21T19:06:42.543Z,99202.63
2022-11-21T19:11:46.140Z,99208.28
2022-11-21T19:16:50.009Z,99194.72
2022-11-21T19:21:55.022Z,99172.06
2022-11-21T19:26:58.598Z,99168.41
2022-11-21T19:32:02.207Z,99175.81
2022-11-21T19:37:07.202Z,99175.41
2022-11-21T19:42:10.775Z,99169.50
2022-11-21T19:47:14.639Z,99162.25
2022-11-21T19:52:23.641Z,99163.47
2022-11-21T19:57:30.473Z,99175.91
2022-11-21T20:02:33.988Z,99193.97
2022-11-21T20:07:39.173Z,99227.88
2022-11-21T20:12:42.756Z,99232.94
2022-11-21T20:17:50.220Z,99203.22
2022-11-21T20:22:55.224Z,99196.38
2022-11-21T20:27:58.930Z,99193.13
2022-11-21T20:33:05.909Z,99188.38
2022-11-21T20:38:13.707Z,99190.63
2022-11-21T20:43:17.607Z,99185.66
2022-11-21T20:48:21.189Z,99184.53
2022-11-21T20:58:51.507Z,99188.84
2022-11-21T21:03:55.079Z,99195.22
2022-11-21T21:08:59.948Z,99200.50
2022-11-21T21:14:03.467Z,99191.47
2022-11-21T21:19:06.942Z,99186.22
2022-11-21T21:24:12.445Z,99187.88
2022-11-21T21:29:19.157Z,99178.34
2022-11-21T21:34:23.543Z,99150.63
2022-11-21T21:39:28.425Z,99170.47
2022-11-21T21:44:33.769Z,99167.06
2022-11-21T21:49:37.571Z,99164.91
2022-11-21T21:54:42.416Z,99154.75
2022-11-21T21:59:46.000Z,99163.56
2022-11-21T22:04:52.110Z,99149.16
2022-11-21T22:09:57.282Z,99146.53
2022-11-21T22:15:00.870Z,99132.22
2022-11-21T22:20:04.826Z,99124.75
2022-11-21T22:25:10.484Z,99114.13
2022-11-21T22:30:14.430Z,99107.91
2022-11-21T22:35:17.797Z,99098.78
2022-11-21T22:40:22.726Z,99082.66
2022-11-21T22:45:26.237Z,99090.50
2022-11-21T22:50:30.036Z,99069.16
2022-11-21T22:55:34.846Z,99063.22
2022-11-21T23:00:38.470Z,99053.63
2022-11-21T23:05:41.984Z,99059.88
2022-11-21T23:10:46.878Z,99047.38
2022-11-21T23:15:50.294Z,99044.06
2022-11-21T23:20:53.932Z,99055.34
2022-11-21T23:25:58.822Z,99055.13
2022-11-21T23:31:02.493Z,99049.44
2022-11-21T23:36:06.348Z,99050.34
2022-11-21T23:41:11.462Z,99051.16
2022-11-21T23:46:14.934Z,99038.41
2022-11-21T23:51:18.526Z,99037.34
2022-11-21T23:56:23.355Z,99029.72
